Pretoria, South Africa
Current Conditions -  °F | °C
As of 12:00 AM on Tuesday 21 Oct 2014 (Local Time) from FALA Reporting Station
NA  
Wind Chill: 63°   Ceiling: NA
Heat Index: 63°   Visibility: NA
Dew Point: 34°   Wind: 6mph
Humidity: 34%   Direction: 120°ESE
Pressure: 30.15"   Gusts: NA
Location:  25.73°S, 28.22°E
Report Text: FALA 202200Z AUTO 12005KT //// // 17/01 Q1021
Loading
Personal Weather Stations






























Interactive Weather Map
Tropical Storm Tracking
New forecast layout! Learn more

10-Day Weather Forecast

Advertisements
Track Severe Weather on mobile